Time;durP1;ratioP1;P1;durP2;ratioP2;P2;SDS_P1;SDS_P2;PMS_P1;PMS_P2;Temp;Humidity;BMP_temperature;BMP_pressure;BME280_temperature;BME280_humidity;BME280_pressure;Samples;Min_cycle;Max_cycle;Signal;HPM_P1;HPM_P2
2021/05/21 14:12:02;;;;;;;3.25;1.52;;;;;;;;;;1915199;56;20505;-67
2021/05/21 14:14:30;;;;;;;4.28;1.02;;;;;;;;;;1912286;67;20076;-66
2021/05/21 14:16:56;;;;;;;5.63;1.13;;;;;;;;;;1907147;67;20147;-67
2021/05/21 14:34:59;;;;;;;0.73;0.40;;;;;;;;;;4966108;28;20457;-68
2021/05/21 14:37:25;;;;;;;0.55;0.43;;;;;;;;;;4961069;28;20038;-68
2021/05/21 14:39:50;;;;;;;0.50;0.40;;;;;;;;;;4953205;28;20428;-69
2021/05/21 14:42:16;;;;;;;0.30;0.30;;;;;;;;;;4953655;28;392268;-68
2021/05/21 14:44:41;;;;;;;0.40;0.38;;;;;;;;;;4965413;28;20035;-69
2021/05/21 14:48:30;;;;;;;0.55;0.40;;;;;;;;;;5088283;27;20367;-69
2021/05/21 14:50:56;;;;;;;0.60;0.60;;;;;;;;;;5086976;28;20422;-68
2021/05/21 14:53:22;;;;;;;1.10;0.52;;;;;;;;;;5089122;28;20106;-68
2021/05/21 14:55:47;;;;;;;0.80;0.40;;;;;;;;;;5086995;28;20116;-68
2021/05/21 14:58:13;;;;;;;0.30;0.30;;;;;;;;;;5088256;28;20036;-69
2021/05/21 15:00:39;;;;;;;0.40;0.40;;;;;;;;;;5088507;28;20468;-69
2021/05/21 15:03:06;;;;;;;0.50;0.40;;;;;;;;;;5090775;28;20025;-68
2021/05/21 15:05:34;;;;;;;1.10;0.30;;;;;;;;;;5085607;28;20032;-69
2021/05/21 15:08:01;;;;;;;2.35;0.30;;;;;;;;;;5086375;28;20483;-70
2021/05/21 15:10:30;;;;;;;0.45;0.30;;;;;;;;;;5085337;28;20037;-68
2021/05/21 15:13:01;;;;;;;2.47;0.45;;;;;;;;;;5092930;28;20051;-69
2021/05/21 15:15:36;;;;;;;1.23;0.40;;;;;;;;;;5084771;28;20066;-68
2021/05/21 15:24:05;;;;;;;1.05;0.57;;;;;;;;;;5083674;28;20044;-69
2021/05/21 15:26:32;;;;;;;0.93;0.60;;;;;;;;;;5067159;28;20100;-68
2021/05/21 15:28:58;;;;;;;0.65;0.40;;;;;;;;;;5087812;28;20047;-70
2021/05/21 15:31:24;;;;;;;0.60;0.60;;;;;;;;;;5085041;28;20394;-69
2021/05/21 15:33:50;;;;;;;0.57;0.40;;;;;;;;;;5085628;28;20077;-69
2021/05/21 15:36:15;;;;;;;0.70;0.50;;;;;;;;;;5080144;28;20499;-68
2021/05/21 15:38:41;;;;;;;2.55;0.68;;;;;;;;;;5086792;28;20032;-69
2021/05/21 15:41:18;;;;;;;1.33;0.60;;;;;;;;;;5084431;28;20190;-68
2021/05/21 15:46:35;;;;;;;0.60;0.40;;;;;;;;;;5085689;28;20032;-69
2021/05/21 15:51:34;;;;;;;0.52;0.50;;;;;;;;;;5086873;28;20064;-69
2021/05/21 15:54:37;;;;;;;2.88;0.60;;;;;;;;;;5087676;28;20504;-68
2021/05/21 16:01:19;;;;;;;0.70;0.70;;;;;;;;;;5054538;28;21600;-68
2021/05/21 16:03:45;;;;;;;0.70;0.50;;;;;;;;;;5047993;28;20399;-68
2021/05/21 16:06:11;;;;;;;2.55;1.40;;;;;;;;;;5040611;28;20029;-67
2021/05/21 16:08:36;;;;;;;0.75;0.47;;;;;;;;;;5030242;28;390282;-69
2021/05/21 16:11:05;;;;;;;1.35;1.23;;;;;;;;;;5044200;28;20022;-68
2021/05/21 16:13:32;;;;;;;1.70;0.90;;;;;;;;;;5034871;28;20021;-68
2021/05/21 16:16:00;;;;;;;4.80;1.55;;;;;;;;;;5035463;28;20496;-68
2021/05/21 16:18:26;;;;;;;2.58;0.65;;;;;;;;;;5034509;28;20151;-68
2021/05/21 16:20:52;;;;;;;4.80;2.38;;;;;;;;;;5036265;28;20037;-68
2021/05/21 16:23:20;;;;;;;2.17;1.02;;;;;;;;;;5043386;28;20033;-68
2021/05/21 16:25:45;;;;;;;1.10;0.77;;;;;;;;;;5034812;28;20078;-68
2021/05/21 16:28:11;;;;;;;1.20;0.90;;;;;;;;;;5040485;28;20025;-68
2021/05/21 16:30:38;;;;;;;4.43;2.63;;;;;;;;;;5042291;28;20030;-68
2021/05/21 16:33:05;;;;;;;1.92;0.80;;;;;;;;;;5043036;28;20037;-67
2021/05/21 16:35:31;;;;;;;3.17;1.15;;;;;;;;;;5037339;28;20121;-69
2021/05/21 16:37:57;;;;;;;2.72;1.00;;;;;;;;;;5031931;28;20072;-68
2021/05/21 16:40:22;;;;;;;1.63;1.00;;;;;;;;;;5041347;28;20222;-69
2021/05/21 16:42:48;;;;;;;1.08;0.98;;;;;;;;;;5050909;28;20037;-69
2021/05/21 16:45:15;;;;;;;1.25;0.90;;;;;;;;;;5030777;28;20025;-68
2021/05/21 16:47:41;;;;;;;1.88;0.80;;;;;;;;;;5029960;28;20061;-67
2021/05/21 16:50:07;;;;;;;2.20;1.17;;;;;;;;;;5034936;28;20076;-68
2021/05/21 16:52:56;;;;;;;2.40;1.80;;;;;;;;;;5038506;28;20148;-70
2021/05/21 16:55:21;;;;;;;0.95;0.82;;;;;;;;;;5033779;28;20083;-69
2021/05/21 16:57:47;;;;;;;0.95;0.80;;;;;;;;;;5036359;28;20029;-68
2021/05/21 17:00:15;;;;;;;0.55;0.50;;;;;;;;;;5039889;28;20040;-68
2021/05/21 17:02:40;;;;;;;1.58;0.90;;;;;;;;;;5036713;28;20033;-69
2021/05/21 17:05:08;;;;;;;2.17;1.27;;;;;;;;;;5028070;28;20094;-70
2021/05/21 17:07:37;;;;;;;1.45;0.90;;;;;;;;;;5036200;28;20029;-69
2021/05/21 17:10:08;;;;;;;1.00;0.68;;;;;;;;;;5014539;28;20022;-69
2021/05/21 17:12:40;;;;;;;0.70;0.70;;;;;;;;;;5023644;28;20115;-69
2021/05/21 17:42:42;;;;;;;1.70;1.20;;;;;;;;;;5025488;28;20033;-68
2021/05/21 17:47:45;;;;;;;1.30;0.93;;;;;;;;;;5019991;28;20041;-68
2021/05/21 18:12:10;;;;;;;1.40;1.20;;;;;;;;;;5025674;28;20030;-67
2021/05/21 18:47:49;;;;;;;1.10;0.68;;;;;;;;;;5021678;28;20137;-67
2021/05/21 19:03:15;;;;;;;1.33;0.45;;;;;;;;;;5018145;28;20473;-68
2021/05/21 19:05:43;;;;;;;0.60;0.52;;;;;;;;;;5014733;28;20157;-68
2021/05/21 19:08:18;;;;;;;0.82;0.50;;;;;;;;;;5011171;28;20393;-68
2021/05/21 19:13:21;;;;;;;0.63;0.60;;;;;;;;;;5021390;28;20109;-67
2021/05/21 19:15:53;;;;;;;0.65;0.50;;;;;;;;;;5017744;28;20493;-69
2021/05/21 19:18:25;;;;;;;1.88;0.70;;;;;;;;;;5018952;28;20029;-69
2021/05/21 19:21:04;;;;;;;0.63;0.50;;;;;;;;;;5016597;28;20038;-68
2021/05/21 19:23:31;;;;;;;2.13;0.70;;;;;;;;;;5016022;28;20334;-70
2021/05/21 19:25:59;;;;;;;2.40;1.35;;;;;;;;;;5013890;28;20215;-68
2021/05/21 19:47:14;;;;;;;0.68;0.50;;;;;;;;;;5013987;28;20033;-67
2021/05/21 20:12:43;;;;;;;1.25;0.57;;;;;;;;;;5018536;28;20037;-68
2021/05/21 20:15:09;;;;;;;0.70;0.45;;;;;;;;;;5013531;28;20113;-68
2021/05/21 20:17:39;;;;;;;0.57;0.52;;;;;;;;;;5013689;28;20083;-68
2021/05/21 20:20:08;;;;;;;1.45;0.40;;;;;;;;;;5015571;28;20064;-68
2021/05/21 20:22:34;;;;;;;0.50;0.40;;;;;;;;;;5018634;28;20065;-68
2021/05/21 20:25:16;;;;;;;0.45;0.32;;;;;;;;;;5020751;28;20041;-68
2021/05/21 20:44:19;;;;;;;1.13;0.88;;;;;;;;;;5015361;28;20037;-68
2021/05/21 21:09:20;;;;;;;0.43;0.40;;;;;;;;;;5025829;28;20080;-67
2021/05/21 21:12:02;;;;;;;0.60;0.40;;;;;;;;;;5036391;28;20221;-68
2021/05/21 21:21:55;;;;;;;0.40;0.40;;;;;;;;;;5025336;27;193970;-68
2021/05/21 21:24:50;;;;;;;0.77;0.50;;;;;;;;;;5029503;28;20025;-67
2021/05/21 21:27:23;;;;;;;0.70;0.40;;;;;;;;;;5021326;28;20033;-68
2021/05/21 21:33:03;;;;;;;0.82;0.50;;;;;;;;;;5017608;28;20041;-67
2021/05/21 21:41:16;;;;;;;0.93;0.85;;;;;;;;;;5023664;28;20312;-67
2021/05/21 21:47:12;;;;;;;;;;;;;;;;;;;;;
2021/05/21 21:56:14;;;;;;;2.05;0.50;;;;;;;;;;5013729;28;20026;-66
2021/05/21 21:58:55;;;;;;;1.40;0.50;;;;;;;;;;5026580;28;20041;-67
2021/05/21 22:01:38;;;;;;;1.15;0.60;;;;;;;;;;5031686;28;20029;-67
2021/05/21 22:04:07;;;;;;;1.33;0.40;;;;;;;;;;5015178;28;20037;-67
2021/05/21 22:06:48;;;;;;;0.85;0.50;;;;;;;;;;5015755;28;20038;-67
2021/05/21 22:14:51;;;;;;;0.65;0.50;;;;;;;;;;5015665;28;20107;-68
2021/05/21 22:24:58;;;;;;;0.75;0.43;;;;;;;;;;5015192;28;20032;-67
2021/05/21 22:27:24;;;;;;;1.63;0.47;;;;;;;;;;5023720;28;20025;-68
2021/05/21 22:29:50;;;;;;;0.47;0.40;;;;;;;;;;5014067;28;20026;-68
2021/05/21 22:32:16;;;;;;;0.30;0.30;;;;;;;;;;5003975;28;20494;-68
2021/05/21 22:34:42;;;;;;;0.52;0.40;;;;;;;;;;5005083;28;20036;-68
2021/05/21 22:37:08;;;;;;;1.55;0.60;;;;;;;;;;5004300;28;20114;-68
2021/05/21 22:39:34;;;;;;;0.55;0.50;;;;;;;;;;5001035;28;20026;-67
2021/05/21 22:42:02;;;;;;;0.30;0.30;;;;;;;;;;5014865;28;20121;-67
2021/05/21 22:44:28;;;;;;;1.35;0.50;;;;;;;;;;4992732;28;20706;-68
2021/05/21 22:46:53;;;;;;;0.55;0.40;;;;;;;;;;5002008;28;20029;-67
2021/05/21 22:49:24;;;;;;;0.63;0.50;;;;;;;;;;5019967;28;20074;-67
2021/05/21 22:51:50;;;;;;;0.73;0.50;;;;;;;;;;5005503;28;20030;-68
2021/05/21 22:54:15;;;;;;;1.75;0.50;;;;;;;;;;4998066;28;20557;-68
2021/05/21 22:56:41;;;;;;;2.30;0.50;;;;;;;;;;5008927;28;20034;-68
2021/05/21 22:59:09;;;;;;;1.63;0.40;;;;;;;;;;5009960;28;20030;-68
2021/05/21 23:01:34;;;;;;;1.20;0.40;;;;;;;;;;5001412;28;20033;-68
2021/05/21 23:04:00;;;;;;;1.00;0.70;;;;;;;;;;5007466;28;20041;-67
2021/05/21 23:06:26;;;;;;;1.77;0.60;;;;;;;;;;5020120;28;20029;-68
2021/05/21 23:08:51;;;;;;;1.00;0.70;;;;;;;;;;5004519;28;20056;-68
2021/05/21 23:11:17;;;;;;;2.35;0.80;;;;;;;;;;5004918;28;20382;-68
2021/05/21 23:13:42;;;;;;;0.50;0.47;;;;;;;;;;5007798;28;20030;-68
2021/05/21 23:16:08;;;;;;;2.40;0.70;;;;;;;;;;5009741;28;20128;-67
2021/05/21 23:18:34;;;;;;;2.75;0.40;;;;;;;;;;5011662;28;20070;-68
2021/05/21 23:20:59;;;;;;;0.93;0.47;;;;;;;;;;5004290;28;20030;-68
2021/05/21 23:23:25;;;;;;;1.05;0.60;;;;;;;;;;5017918;28;20038;-68
2021/05/21 23:25:50;;;;;;;1.02;0.40;;;;;;;;;;5002516;28;20382;-68
2021/05/21 23:28:16;;;;;;;0.63;0.40;;;;;;;;;;4996179;28;20034;-68
2021/05/21 23:30:41;;;;;;;2.83;0.60;;;;;;;;;;5010663;28;20021;-69
2021/05/21 23:33:07;;;;;;;0.90;0.60;;;;;;;;;;5014687;28;20116;-68
2021/05/21 23:35:32;;;;;;;0.35;0.32;;;;;;;;;;4998747;28;20053;-67
2021/05/21 23:37:58;;;;;;;1.33;0.77;;;;;;;;;;5008035;28;20069;-67
2021/05/21 23:40:23;;;;;;;1.67;1.05;;;;;;;;;;5008176;28;20163;-67
2021/05/21 23:42:49;;;;;;;1.98;0.57;;;;;;;;;;5006873;28;20033;-67
2021/05/21 23:45:14;;;;;;;2.65;0.60;;;;;;;;;;5011683;28;20358;-68
2021/05/21 23:47:40;;;;;;;0.82;0.40;;;;;;;;;;5003623;28;20069;-68
2021/05/21 23:50:07;;;;;;;1.27;0.30;;;;;;;;;;5018403;28;20029;-68
2021/05/21 23:52:32;;;;;;;0.88;0.43;;;;;;;;;;4997822;28;20087;-68
2021/05/21 23:54:58;;;;;;;1.30;0.47;;;;;;;;;;5008050;28;20025;-68
2021/05/21 23:57:24;;;;;;;1.38;0.63;;;;;;;;;;5011959;28;20022;-67
2021/05/21 23:59:50;;;;;;;1.65;0.85;;;;;;;;;;5000757;28;20030;-67
